sensor_id;sensor_type;location;lat;lon;timestamp;pressure;altitude;pressure_sealevel;temperature
64458;BMP280;58438;51.200;7.252;2023-12-07T00:00:34;97499.91;;;1.60
64458;BMP280;58438;51.200;7.252;2023-12-07T00:03:21;97510.22;;;1.61
64458;BMP280;58438;51.200;7.252;2023-12-07T00:06:08;97512.31;;;1.54
64458;BMP280;58438;51.200;7.252;2023-12-07T00:08:55;97513.88;;;1.51
64458;BMP280;58438;51.200;7.252;2023-12-07T00:11:43;97519.91;;;1.55
64458;BMP280;58438;51.200;7.252;2023-12-07T00:14:30;97531.41;;;1.56
64458;BMP280;58438;51.200;7.252;2023-12-07T00:17:19;97524.88;;;1.57
64458;BMP280;58438;51.200;7.252;2023-12-07T00:20:06;97522.53;;;1.59
64458;BMP280;58438;51.200;7.252;2023-12-07T00:22:54;97515.94;;;1.63
64458;BMP280;58438;51.200;7.252;2023-12-07T00:25:41;97520.22;;;1.61
64458;BMP280;58438;51.200;7.252;2023-12-07T00:28:28;97517.03;;;1.66
64458;BMP280;58438;51.200;7.252;2023-12-07T00:31:15;97515.19;;;1.63
64458;BMP280;58438;51.200;7.252;2023-12-07T00:34:04;97518.19;;;1.65
64458;BMP280;58438;51.200;7.252;2023-12-07T00:36:51;97516.63;;;1.67
64458;BMP280;58438;51.200;7.252;2023-12-07T00:39:40;97520.63;;;1.59
64458;BMP280;58438;51.200;7.252;2023-12-07T00:42:27;97519.38;;;1.64
64458;BMP280;58438;51.200;7.252;2023-12-07T00:45:15;97520.56;;;1.63
64458;BMP280;58438;51.200;7.252;2023-12-07T00:48:02;97519.03;;;1.62
64458;BMP280;58438;51.200;7.252;2023-12-07T00:50:51;97512.50;;;1.63
64458;BMP280;58438;51.200;7.252;2023-12-07T00:53:38;97516.63;;;1.67
64458;BMP280;58438;51.200;7.252;2023-12-07T00:56:25;97513.53;;;1.69
64458;BMP280;58438;51.200;7.252;2023-12-07T00:59:12;97511.25;;;1.67
64458;BMP280;58438;51.200;7.252;2023-12-07T01:01:59;97523.91;;;1.67
64458;BMP280;58438;51.200;7.252;2023-12-07T01:04:47;97525.06;;;1.66
64458;BMP280;58438;51.200;7.252;2023-12-07T01:07:39;97528.19;;;1.64
64458;BMP280;58438;51.200;7.252;2023-12-07T01:10:29;97531.00;;;1.57
64458;BMP280;58438;51.200;7.252;2023-12-07T01:13:20;97525.34;;;1.52
64458;BMP280;58438;51.200;7.252;2023-12-07T01:16:11;97524.59;;;1.51
64458;BMP280;58438;51.200;7.252;2023-12-07T01:19:01;97528.72;;;1.56
64458;BMP280;58438;51.200;7.252;2023-12-07T01:21:51;97525.16;;;1.62
64458;BMP280;58438;51.200;7.252;2023-12-07T01:24:42;97531.16;;;1.50
64458;BMP280;58438;51.200;7.252;2023-12-07T01:27:32;97529.34;;;1.63
64458;BMP280;58438;51.200;7.252;2023-12-07T01:30:21;97540.56;;;1.58
64458;BMP280;58438;51.200;7.252;2023-12-07T01:33:11;97536.00;;;1.55
64458;BMP280;58438;51.200;7.252;2023-12-07T01:36:01;97548.69;;;1.55
64458;BMP280;58438;51.200;7.252;2023-12-07T01:38:50;97537.94;;;1.55
64458;BMP280;58438;51.200;7.252;2023-12-07T01:41:43;97552.94;;;1.52
64458;BMP280;58438;51.200;7.252;2023-12-07T01:44:32;97552.03;;;1.59
64458;BMP280;58438;51.200;7.252;2023-12-07T01:47:23;97555.44;;;1.63
64458;BMP280;58438;51.200;7.252;2023-12-07T01:50:12;97553.28;;;1.54
64458;BMP280;58438;51.200;7.252;2023-12-07T01:53:04;97555.50;;;1.59
64458;BMP280;58438;51.200;7.252;2023-12-07T01:55:55;97556.72;;;1.55
64458;BMP280;58438;51.200;7.252;2023-12-07T01:58:47;97556.38;;;1.53
64458;BMP280;58438;51.200;7.252;2023-12-07T02:01:37;97545.16;;;1.58
64458;BMP280;58438;51.200;7.252;2023-12-07T02:04:27;97565.72;;;1.45
64458;BMP280;58438;51.200;7.252;2023-12-07T02:07:17;97564.13;;;1.47
64458;BMP280;58438;51.200;7.252;2023-12-07T02:10:08;97562.97;;;1.48
64458;BMP280;58438;51.200;7.252;2023-12-07T02:12:58;97552.59;;;1.50
64458;BMP280;58438;51.200;7.252;2023-12-07T02:15:49;97557.47;;;1.55
64458;BMP280;58438;51.200;7.252;2023-12-07T02:18:40;97557.41;;;1.59
64458;BMP280;58438;51.200;7.252;2023-12-07T02:21:33;97563.13;;;1.41
64458;BMP280;58438;51.200;7.252;2023-12-07T02:24:24;97568.75;;;1.47
64458;BMP280;58438;51.200;7.252;2023-12-07T02:27:16;97569.44;;;1.51
64458;BMP280;58438;51.200;7.252;2023-12-07T02:30:07;97574.06;;;1.50
64458;BMP280;58438;51.200;7.252;2023-12-07T02:32:57;97578.38;;;1.44
64458;BMP280;58438;51.200;7.252;2023-12-07T02:35:47;97580.66;;;1.46
64458;BMP280;58438;51.200;7.252;2023-12-07T02:38:37;97587.41;;;1.54
64458;BMP280;58438;51.200;7.252;2023-12-07T02:41:27;97586.38;;;1.48
64458;BMP280;58438;51.200;7.252;2023-12-07T02:44:16;97586.75;;;1.46
64458;BMP280;58438;51.200;7.252;2023-12-07T02:47:03;97594.41;;;1.48
64458;BMP280;58438;51.200;7.252;2023-12-07T02:49:50;97608.88;;;1.54
64458;BMP280;58438;51.200;7.252;2023-12-07T02:52:37;97600.56;;;1.45
64458;BMP280;58438;51.200;7.252;2023-12-07T02:55:25;97606.66;;;1.49
64458;BMP280;58438;51.200;7.252;2023-12-07T02:58:12;97603.56;;;1.50
64458;BMP280;58438;51.200;7.252;2023-12-07T03:01:00;97597.84;;;1.48
64458;BMP280;58438;51.200;7.252;2023-12-07T03:03:47;97603.75;;;1.40
64458;BMP280;58438;51.200;7.252;2023-12-07T03:06:34;97604.53;;;1.37
64458;BMP280;58438;51.200;7.252;2023-12-07T03:09:21;97597.56;;;1.43
64458;BMP280;58438;51.200;7.252;2023-12-07T03:12:08;97596.25;;;1.31
64458;BMP280;58438;51.200;7.252;2023-12-07T03:14:55;97591.97;;;1.34
64458;BMP280;58438;51.200;7.252;2023-12-07T03:17:44;97584.63;;;1.38
64458;BMP280;58438;51.200;7.252;2023-12-07T03:20:32;97588.81;;;1.39
64458;BMP280;58438;51.200;7.252;2023-12-07T03:23:19;97594.94;;;1.39
64458;BMP280;58438;51.200;7.252;2023-12-07T03:26:06;97584.47;;;1.45
64458;BMP280;58438;51.200;7.252;2023-12-07T03:28:53;97586.59;;;1.34
64458;BMP280;58438;51.200;7.252;2023-12-07T03:31:39;97586.94;;;1.36
64458;BMP280;58438;51.200;7.252;2023-12-07T03:34:28;97602.34;;;1.32
64458;BMP280;58438;51.200;7.252;2023-12-07T03:37:15;97592.69;;;1.38
64458;BMP280;58438;51.200;7.252;2023-12-07T03:40:02;97588.13;;;1.35
64458;BMP280;58438;51.200;7.252;2023-12-07T03:42:51;97584.19;;;1.20
64458;BMP280;58438;51.200;7.252;2023-12-07T03:45:41;97587.66;;;1.20
64458;BMP280;58438;51.200;7.252;2023-12-07T03:48:28;97579.44;;;1.31
64458;BMP280;58438;51.200;7.252;2023-12-07T03:51:17;97580.91;;;1.32
64458;BMP280;58438;51.200;7.252;2023-12-07T03:54:04;97576.44;;;1.25
64458;BMP280;58438;51.200;7.252;2023-12-07T03:56:51;97579.44;;;1.31
64458;BMP280;58438;51.200;7.252;2023-12-07T03:59:38;97572.03;;;1.35
64458;BMP280;58438;51.200;7.252;2023-12-07T04:02:25;97579.28;;;1.38
64458;BMP280;58438;51.200;7.252;2023-12-07T04:05:13;97581.25;;;1.34
64458;BMP280;58438;51.200;7.252;2023-12-07T04:08:02;97581.59;;;1.36
64458;BMP280;58438;51.200;7.252;2023-12-07T04:10:51;97582.91;;;1.28
64458;BMP280;58438;51.200;7.252;2023-12-07T04:13:38;97589.28;;;1.34
64458;BMP280;58438;51.200;7.252;2023-12-07T04:16:25;97583.28;;;1.30
64458;BMP280;58438;51.200;7.252;2023-12-07T04:19:12;97574.59;;;1.42
64458;BMP280;58438;51.200;7.252;2023-12-07T04:21:59;97580.59;;;1.30
64458;BMP280;58438;51.200;7.252;2023-12-07T04:24:48;97593.22;;;1.29
64458;BMP280;58438;51.200;7.252;2023-12-07T04:27:36;97587.09;;;1.29
64458;BMP280;58438;51.200;7.252;2023-12-07T04:30:23;97571.28;;;1.34
64458;BMP280;58438;51.200;7.252;2023-12-07T04:33:10;97586.28;;;1.32
64458;BMP280;58438;51.200;7.252;2023-12-07T04:35:57;97581.59;;;1.36
64458;BMP280;58438;51.200;7.252;2023-12-07T04:38:44;97580.06;;;1.35
64458;BMP280;58438;51.200;7.252;2023-12-07T04:41:32;97578.22;;;1.32
64458;BMP280;58438;51.200;7.252;2023-12-07T04:44:19;97589.28;;;1.34
64458;BMP280;58438;51.200;7.252;2023-12-07T04:47:06;97578.50;;;1.37
64458;BMP280;58438;51.200;7.252;2023-12-07T04:49:53;97584.47;;;1.45
64458;BMP280;58438;51.200;7.252;2023-12-07T04:52:40;97586.53;;;1.37
64458;BMP280;58438;51.200;7.252;2023-12-07T04:55:28;97585.03;;;1.36
64458;BMP280;58438;51.200;7.252;2023-12-07T04:58:16;97583.94;;;1.34
64458;BMP280;58438;51.200;7.252;2023-12-07T05:01:03;97588.94;;;1.32
64458;BMP280;58438;51.200;7.252;2023-12-07T05:03:51;97584.78;;;1.31
64458;BMP280;58438;51.200;7.252;2023-12-07T05:06:38;97582.00;;;1.34
64458;BMP280;58438;51.200;7.252;2023-12-07T05:09:25;97590.75;;;1.38
64458;BMP280;58438;51.200;7.252;2023-12-07T05:12:12;97595.69;;;1.40
64458;BMP280;58438;51.200;7.252;2023-12-07T05:15:01;97604.78;;;1.46
64458;BMP280;58438;51.200;7.252;2023-12-07T05:17:48;97605.53;;;1.46
64458;BMP280;58438;51.200;7.252;2023-12-07T05:20:35;97602.91;;;1.43
64458;BMP280;58438;51.200;7.252;2023-12-07T05:23:24;97593.03;;;1.40
64458;BMP280;58438;51.200;7.252;2023-12-07T05:26:12;97606.50;;;1.36
64458;BMP280;58438;51.200;7.252;2023-12-07T05:28:59;97601.88;;;1.37
64458;BMP280;58438;51.200;7.252;2023-12-07T05:31:49;97604.91;;;1.39
64458;BMP280;58438;51.200;7.252;2023-12-07T05:34:36;97603.88;;;1.33
64458;BMP280;58438;51.200;7.252;2023-12-07T05:37:24;97593.88;;;1.33
64458;BMP280;58438;51.200;7.252;2023-12-07T05:40:11;97606.88;;;1.35
64458;BMP280;58438;51.200;7.252;2023-12-07T05:42:59;97607.72;;;1.32
64458;BMP280;58438;51.200;7.252;2023-12-07T05:45:46;97613.75;;;1.36
64458;BMP280;58438;51.200;7.252;2023-12-07T05:48:35;97610.75;;;1.34
64458;BMP280;58438;51.200;7.252;2023-12-07T05:51:23;97608.16;;;1.30
64458;BMP280;58438;51.200;7.252;2023-12-07T05:54:10;97613.75;;;1.36
64458;BMP280;58438;51.200;7.252;2023-12-07T05:56:57;97613.09;;;1.32
64458;BMP280;58438;51.200;7.252;2023-12-07T05:59:44;97616.25;;;1.27
64458;BMP280;58438;51.200;7.252;2023-12-07T06:02:31;97617.06;;;1.24
64458;BMP280;58438;51.200;7.252;2023-12-07T06:05:20;97602.78;;;1.30
64458;BMP280;58438;51.200;7.252;2023-12-07T06:08:07;97611.91;;;1.33
64458;BMP280;58438;51.200;7.252;2023-12-07T06:10:54;97615.69;;;1.35
64458;BMP280;58438;51.200;7.252;2023-12-07T06:13:42;97616.31;;;1.43
64458;BMP280;58438;51.200;7.252;2023-12-07T06:16:29;97622.47;;;1.43
64458;BMP280;58438;51.200;7.252;2023-12-07T06:19:16;97617.84;;;1.44
64458;BMP280;58438;51.200;7.252;2023-12-07T06:22:04;97621.28;;;1.44
64458;BMP280;58438;51.200;7.252;2023-12-07T06:24:52;97616.66;;;1.45
64458;BMP280;58438;51.200;7.252;2023-12-07T06:27:39;97614.06;;;1.41
64458;BMP280;58438;51.200;7.252;2023-12-07T06:30:27;97619.34;;;1.45
64458;BMP280;58438;51.200;7.252;2023-12-07T06:33:14;97612.91;;;1.42
64458;BMP280;58438;51.200;7.252;2023-12-07T06:36:01;97610.56;;;1.44
64458;BMP280;58438;51.200;7.252;2023-12-07T06:38:50;97597.22;;;1.41
64458;BMP280;58438;51.200;7.252;2023-12-07T06:41:38;97605.59;;;1.43
64458;BMP280;58438;51.200;7.252;2023-12-07T06:44:25;97594.06;;;1.46
64458;BMP280;58438;51.200;7.252;2023-12-07T06:47:12;97586.88;;;1.39
64458;BMP280;58438;51.200;7.252;2023-12-07T06:49:59;97584.63;;;1.38
64458;BMP280;58438;51.200;7.252;2023-12-07T06:52:50;97590.34;;;1.40
64458;BMP280;58438;51.200;7.252;2023-12-07T06:55:39;97577.00;;;1.36
64458;BMP280;58438;51.200;7.252;2023-12-07T06:58:30;97589.28;;;1.34
64458;BMP280;58438;51.200;7.252;2023-12-07T07:01:17;97579.69;;;1.36
64458;BMP280;58438;51.200;7.252;2023-12-07T07:04:04;97586.22;;;1.35
64458;BMP280;58438;51.200;7.252;2023-12-07T07:06:51;97583.16;;;1.33
64458;BMP280;58438;51.200;7.252;2023-12-07T07:09:38;97584.25;;;1.36
64458;BMP280;58438;51.200;7.252;2023-12-07T07:12:27;97581.59;;;1.36
64458;BMP280;58438;51.200;7.252;2023-12-07T07:15:15;97580.47;;;1.33
64458;BMP280;58438;51.200;7.252;2023-12-07T07:18:03;97577.78;;;1.33
64458;BMP280;58438;51.200;7.252;2023-12-07T07:20:51;97575.69;;;1.25
64458;BMP280;58438;51.200;7.252;2023-12-07T07:23:38;97575.88;;;1.34
64458;BMP280;58438;51.200;7.252;2023-12-07T07:26:25;97578.38;;;1.25
64458;BMP280;58438;51.200;7.252;2023-12-07T07:29:13;97576.38;;;1.29
64458;BMP280;58438;51.200;7.252;2023-12-07T07:32:01;97585.66;;;1.24
64458;BMP280;58438;51.200;7.252;2023-12-07T07:34:48;97573.41;;;1.23
64458;BMP280;58438;51.200;7.252;2023-12-07T07:37:35;97577.97;;;1.26
64458;BMP280;58438;51.200;7.252;2023-12-07T07:40:22;97572.94;;;1.28
64458;BMP280;58438;51.200;7.252;2023-12-07T07:43:11;97572.59;;;1.26
64458;BMP280;58438;51.200;7.252;2023-12-07T07:46:00;97572.59;;;1.26
64458;BMP280;58438;51.200;7.252;2023-12-07T07:48:47;97591.72;;;1.28
64458;BMP280;58438;51.200;7.252;2023-12-07T07:51:35;97592.47;;;1.29
64458;BMP280;58438;51.200;7.252;2023-12-07T07:54:22;97588.28;;;1.28
64458;BMP280;58438;51.200;7.252;2023-12-07T07:57:09;97588.63;;;1.30
64458;BMP280;58438;51.200;7.252;2023-12-07T07:59:56;97586.41;;;1.25
64458;BMP280;58438;51.200;7.252;2023-12-07T08:02:45;97583.28;;;1.30
64458;BMP280;58438;51.200;7.252;2023-12-07T08:05:32;97583.59;;;1.32
64458;BMP280;58438;51.200;7.252;2023-12-07T08:08:20;97590.94;;;1.28
64458;BMP280;58438;51.200;7.252;2023-12-07T08:11:07;97574.13;;;1.27
64458;BMP280;58438;51.200;7.252;2023-12-07T08:13:54;97579.13;;;1.25
64458;BMP280;58438;51.200;7.252;2023-12-07T08:16:42;97578.72;;;1.27
64458;BMP280;58438;51.200;7.252;2023-12-07T08:19:30;97575.63;;;1.28
64458;BMP280;58438;51.200;7.252;2023-12-07T08:22:18;97570.63;;;1.30
64458;BMP280;58438;51.200;7.252;2023-12-07T08:25:06;97583.41;;;1.23
64458;BMP280;58438;51.200;7.252;2023-12-07T08:27:56;97577.97;;;1.26
64458;BMP280;58438;51.200;7.252;2023-12-07T08:30:44;97576.75;;;1.31
64458;BMP280;58438;51.200;7.252;2023-12-07T08:33:32;97580.16;;;1.31
64458;BMP280;58438;51.200;7.252;2023-12-07T08:36:21;97577.91;;;1.30
64458;BMP280;58438;51.200;7.252;2023-12-07T08:39:08;97577.97;;;1.46
64458;BMP280;58438;51.200;7.252;2023-12-07T08:41:56;97582.72;;;1.58
64458;BMP280;58438;51.200;7.252;2023-12-07T08:44:43;97590.09;;;1.54
64458;BMP280;58438;51.200;7.252;2023-12-07T08:47:30;97599.44;;;1.46
64458;BMP280;58438;51.200;7.252;2023-12-07T08:50:17;97595.22;;;1.45
64458;BMP280;58438;51.200;7.252;2023-12-07T08:53:07;97590.91;;;1.51
64458;BMP280;58438;51.200;7.252;2023-12-07T08:55:54;97602.16;;;1.42
64458;BMP280;58438;51.200;7.252;2023-12-07T08:58:41;97598.38;;;1.40
64458;BMP280;58438;51.200;7.252;2023-12-07T09:01:28;97619.00;;;1.43
64458;BMP280;58438;51.200;7.252;2023-12-07T09:04:17;97620.56;;;1.40
64458;BMP280;58438;51.200;7.252;2023-12-07T09:07:05;97614.28;;;1.50
64458;BMP280;58438;51.200;7.252;2023-12-07T09:09:53;97626.59;;;1.48
64458;BMP280;58438;51.200;7.252;2023-12-07T09:12:40;97637.13;;;1.58
64458;BMP280;58438;51.200;7.252;2023-12-07T09:15:27;97644.81;;;1.56
64458;BMP280;58438;51.200;7.252;2023-12-07T09:18:15;97639.00;;;1.61
64458;BMP280;58438;51.200;7.252;2023-12-07T09:21:02;97645.13;;;1.62
64458;BMP280;58438;51.200;7.252;2023-12-07T09:23:50;97661.63;;;1.60
64458;BMP280;58438;51.200;7.252;2023-12-07T09:26:39;97675.16;;;1.53
64458;BMP280;58438;51.200;7.252;2023-12-07T09:29:27;97683.03;;;1.41
64458;BMP280;58438;51.200;7.252;2023-12-07T09:32:15;97698.78;;;1.39
64458;BMP280;58438;51.200;7.252;2023-12-07T09:35:07;97696.56;;;1.34
64458;BMP280;58438;51.200;7.252;2023-12-07T09:38:01;97670.41;;;1.41
64458;BMP280;58438;51.200;7.252;2023-12-07T09:40:52;97664.59;;;1.43
64458;BMP280;58438;51.200;7.252;2023-12-07T09:43:41;97669.91;;;1.46
64458;BMP280;58438;51.200;7.252;2023-12-07T09:46:28;97674.47;;;1.49
64458;BMP280;58438;51.200;7.252;2023-12-07T09:49:17;97674.56;;;1.65
64458;BMP280;58438;51.200;7.252;2023-12-07T09:52:05;97682.13;;;1.70
64458;BMP280;58438;51.200;7.252;2023-12-07T09:54:54;97682.25;;;1.63
64458;BMP280;58438;51.200;7.252;2023-12-07T09:57:42;97682.91;;;1.71
64458;BMP280;58438;51.200;7.252;2023-12-07T10:00:32;97679.94;;;1.65
64458;BMP280;58438;51.200;7.252;2023-12-07T10:03:20;97690.13;;;1.74
64458;BMP280;58438;51.200;7.252;2023-12-07T10:06:10;97692.53;;;1.68
64458;BMP280;58438;51.200;7.252;2023-12-07T10:09:02;97687.63;;;1.63
64458;BMP280;58438;51.200;7.252;2023-12-07T10:11:50;97690.03;;;1.58
64458;BMP280;58438;51.200;7.252;2023-12-07T10:14:49;97677.56;;;1.48
64458;BMP280;58438;51.200;7.252;2023-12-07T10:17:44;97681.19;;;1.38
64458;BMP280;58438;51.200;7.252;2023-12-07T10:20:34;97686.59;;;1.34
64458;BMP280;58438;51.200;7.252;2023-12-07T10:23:22;97674.94;;;1.21
64458;BMP280;58438;51.200;7.252;2023-12-07T10:26:11;97673.00;;;1.22
64458;BMP280;58438;51.200;7.252;2023-12-07T10:28:58;97679.19;;;1.19
64458;BMP280;58438;51.200;7.252;2023-12-07T10:31:45;97670.47;;;1.15
64458;BMP280;58438;51.200;7.252;2023-12-07T10:34:34;97641.66;;;1.19
64458;BMP280;58438;51.200;7.252;2023-12-07T10:37:22;97634.50;;;1.12
64458;BMP280;58438;51.200;7.252;2023-12-07T10:40:10;97631.09;;;1.08
64458;BMP280;58438;51.200;7.252;2023-12-07T10:42:57;97628.03;;;1.10
64458;BMP280;58438;51.200;7.252;2023-12-07T10:45:44;97624.56;;;1.09
64458;BMP280;58438;51.200;7.252;2023-12-07T10:48:32;97618.81;;;1.11
64458;BMP280;58438;51.200;7.252;2023-12-07T10:51:23;97611.22;;;1.06
64458;BMP280;58438;51.200;7.252;2023-12-07T10:54:14;97595.03;;;1.13
64458;BMP280;58438;51.200;7.252;2023-12-07T10:57:02;97590.00;;;1.18
64458;BMP280;58438;51.200;7.252;2023-12-07T10:59:52;97595.41;;;0.92
64458;BMP280;58438;51.200;7.252;2023-12-07T11:02:41;97579.91;;;1.03
64458;BMP280;58438;51.200;7.252;2023-12-07T11:05:31;97592.25;;;0.97
64458;BMP280;58438;51.200;7.252;2023-12-07T11:08:23;97580.34;;;0.98
64458;BMP280;58438;51.200;7.252;2023-12-07T11:11:15;97573.03;;;1.02
64458;BMP280;58438;51.200;7.252;2023-12-07T11:14:04;97569.50;;;1.05
64458;BMP280;58438;51.200;7.252;2023-12-07T11:16:52;97562.94;;;1.09
64458;BMP280;58438;51.200;7.252;2023-12-07T11:19:48;97553.03;;;1.06
64458;BMP280;58438;51.200;7.252;2023-12-07T11:22:36;97552.25;;;1.06
64458;BMP280;58438;51.200;7.252;2023-12-07T11:25:24;97543.09;;;1.07
64458;BMP280;58438;51.200;7.252;2023-12-07T11:28:12;97542.81;;;1.21
64458;BMP280;58438;51.200;7.252;2023-12-07T11:31:00;97532.50;;;1.39
64458;BMP280;58438;51.200;7.252;2023-12-07T11:33:47;97544.03;;;1.36
64458;BMP280;58438;51.200;7.252;2023-12-07T11:36:36;97542.53;;;1.35
64458;BMP280;58438;51.200;7.252;2023-12-07T11:39:23;97546.38;;;1.34
64458;BMP280;58438;51.200;7.252;2023-12-07T11:42:16;97540.78;;;1.28
64458;BMP280;58438;51.200;7.252;2023-12-07T11:45:04;97546.31;;;1.18
64458;BMP280;58438;51.200;7.252;2023-12-07T11:48:05;97543.66;;;1.18
64458;BMP280;58438;51.200;7.252;2023-12-07T11:50:54;97533.31;;;1.16
64458;BMP280;58438;51.200;7.252;2023-12-07T11:53:42;97515.66;;;1.19
64458;BMP280;58438;51.200;7.252;2023-12-07T11:56:30;97512.56;;;1.40
64458;BMP280;58438;51.200;7.252;2023-12-07T11:59:19;97511.31;;;1.44
64458;BMP280;58438;51.200;7.252;2023-12-07T12:02:13;97518.69;;;1.40
64458;BMP280;58438;51.200;7.252;2023-12-07T12:05:00;97517.66;;;1.34
64458;BMP280;58438;51.200;7.252;2023-12-07T12:07:47;97511.88;;;1.36
64458;BMP280;58438;51.200;7.252;2023-12-07T12:10:34;97519.72;;;1.46
64458;BMP280;58438;51.200;7.252;2023-12-07T12:13:21;97516.16;;;1.53
64458;BMP280;58438;51.200;7.252;2023-12-07T12:16:14;97523.09;;;1.50
64458;BMP280;58438;51.200;7.252;2023-12-07T12:19:01;97532.31;;;1.49
64458;BMP280;58438;51.200;7.252;2023-12-07T12:21:49;97534.22;;;1.49
64458;BMP280;58438;51.200;7.252;2023-12-07T12:24:36;97532.38;;;1.46
64458;BMP280;58438;51.200;7.252;2023-12-07T12:27:25;97514.97;;;1.54
64458;BMP280;58438;51.200;7.252;2023-12-07T12:30:13;97515.31;;;1.56
64458;BMP280;58438;51.200;7.252;2023-12-07T12:33:02;97511.19;;;1.71
64458;BMP280;58438;51.200;7.252;2023-12-07T12:35:59;97524.13;;;1.76
64458;BMP280;58438;51.200;7.252;2023-12-07T12:38:46;97519.59;;;1.89
64458;BMP280;58438;51.200;7.252;2023-12-07T12:41:33;97509.19;;;1.91
64458;BMP280;58438;51.200;7.252;2023-12-07T12:44:21;97511.16;;;2.06
64458;BMP280;58438;51.200;7.252;2023-12-07T12:47:16;97509.25;;;2.07
64458;BMP280;58438;51.200;7.252;2023-12-07T12:50:05;97515.63;;;2.13
64458;BMP280;58438;51.200;7.252;2023-12-07T12:52:52;97496.81;;;2.29
64458;BMP280;58438;51.200;7.252;2023-12-07T12:55:40;97488.59;;;2.36
64458;BMP280;58438;51.200;7.252;2023-12-07T12:58:28;97494.75;;;2.52
64458;BMP280;58438;51.200;7.252;2023-12-07T13:01:16;97497.75;;;2.54
64458;BMP280;58438;51.200;7.252;2023-12-07T13:04:04;97502.19;;;2.61
64458;BMP280;58438;51.200;7.252;2023-12-07T13:06:53;97512.09;;;2.64
64458;BMP280;58438;51.200;7.252;2023-12-07T13:09:41;97515.53;;;2.80
64458;BMP280;58438;51.200;7.252;2023-12-07T13:12:30;97510.19;;;2.64
64458;BMP280;58438;51.200;7.252;2023-12-07T13:15:20;97498.88;;;2.85
64458;BMP280;58438;51.200;7.252;2023-12-07T13:18:07;97518.06;;;2.87
64458;BMP280;58438;51.200;7.252;2023-12-07T13:20:54;97525.06;;;2.97
64458;BMP280;58438;51.200;7.252;2023-12-07T13:23:43;97531.72;;;2.92
64458;BMP280;58438;51.200;7.252;2023-12-07T13:26:32;97540.31;;;2.88
64458;BMP280;58438;51.200;7.252;2023-12-07T13:29:19;97557.13;;;2.76
64458;BMP280;58438;51.200;7.252;2023-12-07T13:32:13;97553.41;;;2.70
64458;BMP280;58438;51.200;7.252;2023-12-07T13:35:00;97542.50;;;2.61
64458;BMP280;58438;51.200;7.252;2023-12-07T13:37:48;97526.56;;;2.54
64458;BMP280;58438;51.200;7.252;2023-12-07T13:40:36;97519.09;;;2.45
64458;BMP280;58438;51.200;7.252;2023-12-07T13:43:24;97504.38;;;2.34
64458;BMP280;58438;51.200;7.252;2023-12-07T13:46:11;97497.84;;;2.35
64458;BMP280;58438;51.200;7.252;2023-12-07T13:48:59;97491.28;;;2.36
64458;BMP280;58438;51.200;7.252;2023-12-07T13:51:46;97496.16;;;2.41
64458;BMP280;58438;51.200;7.252;2023-12-07T13:54:33;97499.88;;;2.31
64458;BMP280;58438;51.200;7.252;2023-12-07T13:57:36;97500.38;;;2.42
64458;BMP280;58438;51.200;7.252;2023-12-07T14:00:24;97493.47;;;2.41
64458;BMP280;58438;51.200;7.252;2023-12-07T14:03:10;97491.56;;;2.41
64458;BMP280;58438;51.200;7.252;2023-12-07T14:05:58;97495.22;;;2.31
64458;BMP280;58438;51.200;7.252;2023-12-07T14:08:47;97487.63;;;2.30
64458;BMP280;58438;51.200;7.252;2023-12-07T14:11:35;97497.19;;;2.15
64458;BMP280;58438;51.200;7.252;2023-12-07T14:14:24;97481.34;;;2.20
64458;BMP280;58438;51.200;7.252;2023-12-07T14:17:12;97466.81;;;2.18
64458;BMP280;58438;51.200;7.252;2023-12-07T14:20:00;97466.03;;;2.17
64458;BMP280;58438;51.200;7.252;2023-12-07T14:23:00;97459.00;;;2.23
64458;BMP280;58438;51.200;7.252;2023-12-07T14:25:51;97448.16;;;2.11
64458;BMP280;58438;51.200;7.252;2023-12-07T14:28:38;97436.50;;;2.17
64458;BMP280;58438;51.200;7.252;2023-12-07T14:31:26;97431.31;;;2.10
64458;BMP280;58438;51.200;7.252;2023-12-07T14:34:14;97425.88;;;2.14
64458;BMP280;58438;51.200;7.252;2023-12-07T14:37:05;97417.22;;;2.06
64458;BMP280;58438;51.200;7.252;2023-12-07T14:39:54;97409.56;;;2.05
64458;BMP280;58438;51.200;7.252;2023-12-07T14:42:41;97417.28;;;2.03
64458;BMP280;58438;51.200;7.252;2023-12-07T14:45:29;97424.69;;;1.99
64458;BMP280;58438;51.200;7.252;2023-12-07T14:48:18;97414.94;;;1.89
64458;BMP280;58438;51.200;7.252;2023-12-07T14:51:05;97412.50;;;1.94
64458;BMP280;58438;51.200;7.252;2023-12-07T14:53:53;97408.06;;;1.88
64458;BMP280;58438;51.200;7.252;2023-12-07T14:56:40;97387.44;;;1.85
64458;BMP280;58438;51.200;7.252;2023-12-07T14:59:27;97399.44;;;1.80
64458;BMP280;58438;51.200;7.252;2023-12-07T15:02:15;97399.09;;;1.78
64458;BMP280;58438;51.200;7.252;2023-12-07T15:05:04;97387.94;;;1.80
64458;BMP280;58438;51.200;7.252;2023-12-07T15:07:54;97374.53;;;1.80
64458;BMP280;58438;51.200;7.252;2023-12-07T15:10:41;97372.09;;;1.69
64458;BMP280;58438;51.200;7.252;2023-12-07T15:13:28;97357.94;;;1.69
64458;BMP280;58438;51.200;7.252;2023-12-07T15:16:16;97343.75;;;1.68
64458;BMP280;58438;51.200;7.252;2023-12-07T15:19:03;97341.84;;;1.69
64458;BMP280;58438;51.200;7.252;2023-12-07T15:21:52;97341.56;;;1.63
64458;BMP280;58438;51.200;7.252;2023-12-07T15:24:40;97338.47;;;1.65
64458;BMP280;58438;51.200;7.252;2023-12-07T15:27:29;97341.47;;;1.51
64458;BMP280;58438;51.200;7.252;2023-12-07T15:30:16;97332.22;;;1.52
64458;BMP280;58438;51.200;7.252;2023-12-07T15:33:04;97329.56;;;1.52
64458;BMP280;58438;51.200;7.252;2023-12-07T15:35:51;97327.13;;;1.41
64458;BMP280;58438;51.200;7.252;2023-12-07T15:38:41;97326.84;;;1.36
64458;BMP280;58438;51.200;7.252;2023-12-07T15:41:28;97319.97;;;1.35
64458;BMP280;58438;51.200;7.252;2023-12-07T15:44:15;97314.28;;;1.33
64458;BMP280;58438;51.200;7.252;2023-12-07T15:47:07;97313.22;;;1.30
64458;BMP280;58438;51.200;7.252;2023-12-07T15:49:55;97308.34;;;1.25
64458;BMP280;58438;51.200;7.252;2023-12-07T15:52:42;97311.38;;;1.27
64458;BMP280;58438;51.200;7.252;2023-12-07T15:55:31;97311.38;;;1.27
64458;BMP280;58438;51.200;7.252;2023-12-07T15:58:18;97297.63;;;1.25
64458;BMP280;58438;51.200;7.252;2023-12-07T16:01:06;97296.81;;;1.28
64458;BMP280;58438;51.200;7.252;2023-12-07T16:03:54;97300.47;;;1.18
64458;BMP280;58438;51.200;7.252;2023-12-07T16:06:41;97297.63;;;1.25
64458;BMP280;58438;51.200;7.252;2023-12-07T16:09:28;97300.72;;;1.24
64458;BMP280;58438;51.200;7.252;2023-12-07T16:12:17;97306.44;;;1.26
64458;BMP280;58438;51.200;7.252;2023-12-07T16:15:06;97314.94;;;1.21
64458;BMP280;58438;51.200;7.252;2023-12-07T16:17:54;97302.13;;;1.12
64458;BMP280;58438;51.200;7.252;2023-12-07T16:20:42;97300.00;;;1.04
64458;BMP280;58438;51.200;7.252;2023-12-07T16:23:29;97286.53;;;1.07